Time;durP1;ratioP1;P1;durP2;ratioP2;P2;SDS_P1;SDS_P2;PMS_P1;PMS_P2;Temp;Humidity;BMP_temperature;BMP_pressure;BME280_temperature;BME280_humidity;BME280_pressure;Samples;Min_cycle;Max_cycle;Signal;HPM_P1;HPM_P2
2021/07/01 00:00:18;;;;;;;1.77;0.70;;;;;;;19.75;51.77;98085.66;5014113;28;20033;-62
2021/07/01 00:02:43;;;;;;;3.13;0.70;;;;;;;19.60;51.54;98056.13;5019316;28;20338;-62
2021/07/01 00:05:11;;;;;;;2.28;0.70;;;;;;;19.84;51.93;98091.47;5033474;28;20459;-62
2021/07/01 00:07:37;;;;;;;3.10;1.17;;;;;;;19.79;51.90;98096.59;5019105;28;20370;-62
2021/07/01 00:10:07;;;;;;;3.20;0.80;;;;;;;19.68;52.16;98089.34;5018243;28;20033;-62
2021/07/01 00:12:33;;;;;;;3.50;0.85;;;;;;;19.68;51.92;98089.34;5015364;28;20038;-62
2021/07/01 00:14:58;;;;;;;2.65;0.80;;;;;;;19.67;52.20;98095.66;5016560;28;20025;-62
2021/07/01 00:17:24;;;;;;;3.65;0.80;;;;;;;19.69;52.03;98098.88;5020778;28;20187;-62
2021/07/01 00:19:49;;;;;;;2.42;0.70;;;;;;;19.66;52.11;98084.28;5016993;28;20014;-62
2021/07/01 00:22:14;;;;;;;2.05;0.70;;;;;;;19.65;52.71;98090.59;5016616;28;20488;-62
2021/07/01 00:24:40;;;;;;;1.20;0.50;;;;;;;19.58;52.85;98072.16;5021228;28;20032;-62
2021/07/01 00:27:05;;;;;;;3.13;0.70;;;;;;;19.66;52.43;98088.75;5015877;28;20045;-62
2021/07/01 00:29:31;;;;;;;2.13;0.70;;;;;;;19.43;52.65;98068.25;5019383;28;20044;-63
2021/07/01 00:31:56;;;;;;;2.75;0.80;;;;;;;19.59;52.66;98105.44;5033203;28;20022;-61
2021/07/01 00:34:22;;;;;;;1.80;0.60;;;;;;;19.53;52.83;98098.41;5022174;28;20026;-62
2021/07/01 00:36:47;;;;;;;5.13;2.47;;;;;;;19.26;52.61;98046.88;5036190;28;20033;-62
2021/07/01 00:39:13;;;;;;;1.88;1.30;;;;;;;19.47;52.67;98091.31;5036830;28;20041;-60
2021/07/01 00:41:38;;;;;;;1.77;0.60;;;;;;;19.48;52.63;98090.31;5018252;28;20444;-61
2021/07/01 00:44:04;;;;;;;2.28;0.63;;;;;;;19.45;53.22;98082.03;5020520;28;20021;-62
2021/07/01 00:46:30;;;;;;;3.08;2.58;;;;;;;19.36;53.59;98069.09;5037764;28;20041;-61
2021/07/01 00:48:56;;;;;;;1.85;0.80;;;;;;;19.32;53.34;98075.81;5019499;28;20043;-62
2021/07/01 00:51:21;;;;;;;2.72;2.28;;;;;;;19.40;53.25;98090.56;5034238;28;20057;-60
2021/07/01 00:53:47;;;;;;;2.15;0.70;;;;;;;19.05;53.32;98038.31;5030663;28;20029;-61
2021/07/01 00:56:15;;;;;;;1.85;0.60;;;;;;;19.27;53.08;98075.66;5017103;28;20026;-61
2021/07/01 00:58:40;;;;;;;0.85;0.50;;;;;;;19.29;53.54;98092.06;5017771;28;20479;-60
2021/07/01 01:01:06;;;;;;;1.33;0.57;;;;;;;19.27;53.90;98088.84;5019326;28;20037;-62
2021/07/01 01:03:33;;;;;;;2.70;0.80;;;;;;;19.28;53.94;98095.72;5021269;28;20032;-61
2021/07/01 01:05:59;;;;;;;3.30;0.60;;;;;;;19.27;54.41;98094.09;5033275;28;20041;-60
2021/07/01 01:08:24;;;;;;;1.70;0.70;;;;;;;19.21;54.17;98095.75;5020889;28;20040;-60
2021/07/01 01:10:51;;;;;;;2.22;0.82;;;;;;;19.29;54.90;98099.16;5017084;28;20037;-62
2021/07/01 01:13:26;;;;;;;1.67;0.70;;;;;;;19.22;54.62;98101.88;5015176;28;20110;-61
2021/07/01 01:15:58;;;;;;;3.13;1.05;;;;;;;19.15;53.69;98080.81;5020081;28;20026;-61
2021/07/01 01:18:24;;;;;;;2.42;0.70;;;;;;;19.26;53.35;98087.22;5020749;28;20021;-61
2021/07/01 01:20:51;;;;;;;1.90;0.70;;;;;;;19.24;53.83;98091.91;5020779;28;20440;-61
2021/07/01 01:23:17;;;;;;;2.45;0.73;;;;;;;18.96;53.71;98055.41;5019349;28;20025;-61
2021/07/01 01:25:44;;;;;;;1.90;0.82;;;;;;;19.17;53.96;98102.50;5022341;28;20040;-61
2021/07/01 01:28:10;;;;;;;2.95;1.08;;;;;;;19.16;54.24;98098.22;5014719;28;20030;-62
2021/07/01 01:30:39;;;;;;;4.38;1.70;;;;;;;18.90;54.88;98062.31;5019537;28;20527;-60
2021/07/01 01:33:09;;;;;;;3.30;1.20;;;;;;;19.08;55.08;98101.13;5032346;28;20037;-60
2021/07/01 01:35:36;;;;;;;4.57;4.18;;;;;;;18.87;55.98;98057.47;5017461;28;20091;-61
2021/07/01 01:38:02;;;;;;;2.05;0.70;;;;;;;19.09;56.26;98101.94;5016910;28;20484;-61
2021/07/01 01:40:28;;;;;;;3.38;0.80;;;;;;;18.82;55.41;98054.69;5002572;28;20037;-61
2021/07/01 01:42:53;;;;;;;1.80;0.73;;;;;;;19.05;55.06;98092.84;5016948;28;20512;-61
2021/07/01 01:45:19;;;;;;;3.92;2.15;;;;;;;19.16;54.60;98105.34;5019771;28;20518;-61
2021/07/01 01:47:49;;;;;;;2.35;1.35;;;;;;;18.79;54.56;98050.59;5019361;28;20507;-62
2021/07/01 01:50:19;;;;;;;2.47;0.70;;;;;;;18.82;54.83;98052.84;5035805;28;20038;-61
2021/07/01 01:52:45;;;;;;;1.83;0.70;;;;;;;19.03;55.07;98085.13;5019600;28;20188;-61
2021/07/01 01:55:12;;;;;;;3.53;3.22;;;;;;;18.98;55.16;98083.16;5013148;28;20029;-61
2021/07/01 01:57:46;;;;;;;8.73;8.18;;;;;;;18.97;54.96;98089.44;5017915;28;20026;-60
2021/07/01 02:00:13;;;;;;;2.63;0.90;;;;;;;18.91;55.45;98078.94;5032287;28;20061;-60
2021/07/01 02:02:39;;;;;;;1.92;0.98;;;;;;;18.66;55.63;98050.69;5011982;28;20036;-61
2021/07/01 02:05:05;;;;;;;1.85;0.70;;;;;;;18.88;55.14;98090.69;5013107;28;20041;-61
2021/07/01 02:07:31;;;;;;;2.10;0.70;;;;;;;18.89;55.55;98080.97;5019528;28;20053;-61
2021/07/01 02:09:58;;;;;;;1.67;0.80;;;;;;;18.89;55.55;98087.06;5014125;28;20044;-60
2021/07/01 02:12:23;;;;;;;3.80;0.80;;;;;;;18.81;55.88;98072.28;5010710;28;20029;-61
2021/07/01 02:14:49;;;;;;;3.55;1.27;;;;;;;18.79;56.06;98076.94;5019435;28;20095;-60
2021/07/01 02:17:14;;;;;;;2.75;1.00;;;;;;;18.61;56.08;98046.03;5027569;28;20028;-60
2021/07/01 02:19:40;;;;;;;2.40;0.88;;;;;;;18.77;56.09;98076.34;5013474;28;20030;-61
2021/07/01 02:22:05;;;;;;;2.40;0.77;;;;;;;18.85;55.80;98077.16;5023265;28;20026;-60
2021/07/01 02:24:31;;;;;;;2.70;0.98;;;;;;;18.90;55.35;98083.41;5019642;28;20638;-60
2021/07/01 02:26:56;;;;;;;3.83;0.70;;;;;;;18.79;56.45;98070.88;5020170;28;20033;-61
2021/07/01 02:29:21;;;;;;;4.00;3.47;;;;;;;18.81;58.42;98088.09;5014606;28;20452;-61
2021/07/01 02:31:47;;;;;;;10.32;9.57;;;;;;;18.62;58.13;98054.75;5019381;28;20679;-61
2021/07/01 02:34:12;;;;;;;2.28;0.90;;;;;;;18.87;57.52;98083.81;5017907;28;20041;-60
2021/07/01 02:36:38;;;;;;;2.55;1.17;;;;;;;18.62;57.92;98044.22;5020242;28;20029;-60
2021/07/01 02:39:07;;;;;;;2.25;0.70;;;;;;;18.77;57.56;98072.91;5019245;28;20542;-60
2021/07/01 02:41:32;;;;;;;2.45;0.90;;;;;;;18.82;57.51;98083.66;5021343;28;20692;-61
2021/07/01 02:43:57;;;;;;;2.65;1.50;;;;;;;18.83;55.60;98078.16;5018039;28;20044;-61
2021/07/01 02:46:23;;;;;;;3.80;2.22;;;;;;;18.85;55.79;98085.03;5020074;28;20120;-61
2021/07/01 02:48:48;;;;;;;3.95;2.63;;;;;;;18.69;55.91;98059.97;5021726;28;20025;-60
2021/07/01 02:51:14;;;;;;;3.58;3.25;;;;;;;18.85;55.54;98083.22;5018601;28;20033;-60
2021/07/01 02:53:39;;;;;;;15.60;14.40;;;;;;;18.82;55.71;98084.44;5021017;28;20516;-60
2021/07/01 02:56:04;;;;;;;2.30;0.90;;;;;;;18.77;56.20;98088.72;5031961;28;20137;-60
2021/07/01 02:58:30;;;;;;;2.17;0.80;;;;;;;18.83;56.19;98087.88;5016415;28;20152;-60
2021/07/01 03:00:56;;;;;;;3.92;1.17;;;;;;;18.60;55.85;98057.59;5023517;28;20038;-60
2021/07/01 03:03:21;;;;;;;4.85;1.00;;;;;;;18.82;55.81;98091.56;5019021;28;20472;-60
2021/07/01 03:05:46;;;;;;;2.42;2.05;;;;;;;18.85;55.05;98093.75;5022424;28;20040;-59
2021/07/01 03:08:12;;;;;;;3.00;1.38;;;;;;;18.60;54.91;98049.69;5024503;28;20600;-61
2021/07/01 03:10:37;;;;;;;3.03;0.90;;;;;;;18.84;55.06;98084.25;5022787;28;20115;-60
2021/07/01 03:13:03;;;;;;;2.85;0.80;;;;;;;18.57;55.13;98047.47;5021614;28;20033;-60
2021/07/01 03:15:28;;;;;;;3.00;2.55;;;;;;;18.77;55.48;98084.25;5022788;28;20108;-60
2021/07/01 03:17:54;;;;;;;4.93;1.70;;;;;;;18.77;55.41;98088.72;5023936;28;20036;-60
2021/07/01 03:20:19;;;;;;;1.63;0.70;;;;;;;18.76;55.75;98087.88;5021459;28;20036;-60
2021/07/01 03:22:44;;;;;;;3.20;2.13;;;;;;;18.75;55.74;98094.19;5014837;28;20047;-60
2021/07/01 03:25:10;;;;;;;3.70;1.55;;;;;;;18.82;55.73;98081.81;5038251;28;20475;-60
2021/07/01 03:27:36;;;;;;;4.60;2.75;;;;;;;18.81;55.78;98082.81;5031672;28;20044;-60
2021/07/01 03:30:02;;;;;;;6.90;4.72;;;;;;;18.41;56.04;98038.22;5021861;28;20115;-60
2021/07/01 03:32:28;;;;;;;2.28;1.30;;;;;;;18.68;56.51;98095.22;5018065;28;20272;-60
2021/07/01 03:34:53;;;;;;;3.25;1.98;;;;;;;18.75;56.05;98096.81;5020936;28;20653;-60
2021/07/01 03:37:18;;;;;;;2.78;1.33;;;;;;;18.74;56.01;98094.38;5022812;28;20412;-59
2021/07/01 03:39:44;;;;;;;2.95;1.00;;;;;;;18.76;55.66;98093.16;5021012;28;20037;-60
2021/07/01 03:42:10;;;;;;;2.70;0.90;;;;;;;18.76;55.10;98087.88;5022061;28;20041;-60
2021/07/01 03:44:37;;;;;;;3.83;2.85;;;;;;;18.81;54.80;98084.66;5023904;28;20078;-60
2021/07/01 03:47:03;;;;;;;2.15;0.90;;;;;;;18.75;55.33;98082.84;5021664;28;20110;-59
2021/07/01 03:49:28;;;;;;;3.70;1.17;;;;;;;18.67;56.42;98083.88;5009426;28;20081;-60
2021/07/01 03:51:53;;;;;;;2.45;2.25;;;;;;;18.48;57.31;98058.47;5021025;28;20443;-60
2021/07/01 03:54:19;;;;;;;2.47;1.15;;;;;;;18.56;56.95;98072.19;5018082;28;20199;-61
2021/07/01 03:56:44;;;;;;;2.70;0.82;;;;;;;18.37;56.28;98049.38;5037753;28;20443;-60
2021/07/01 03:59:14;;;;;;;4.32;0.90;;;;;;;18.69;56.68;98087.13;4996641;28;21266;-60
2021/07/01 04:01:41;;;;;;;3.22;2.05;;;;;;;18.73;55.96;98090.94;5019892;28;20034;-60
2021/07/01 04:04:06;;;;;;;3.10;1.00;;;;;;;18.71;55.92;98082.47;5032062;28;20064;-60
2021/07/01 04:06:32;;;;;;;2.70;0.80;;;;;;;18.71;56.39;98089.53;5018101;28;20399;-60
2021/07/01 04:08:58;;;;;;;2.42;0.82;;;;;;;18.67;56.51;98088.34;5036227;28;20033;-60
2021/07/01 04:11:24;;;;;;;1.98;0.90;;;;;;;18.71;56.35;98095.63;5016899;28;20116;-60
2021/07/01 04:13:49;;;;;;;3.72;2.65;;;;;;;18.77;55.96;98091.34;5022049;28;20255;-59
2021/07/01 04:16:15;;;;;;;3.13;1.95;;;;;;;18.80;55.09;98085.63;5019718;28;20377;-60
2021/07/01 04:18:40;;;;;;;2.35;1.73;;;;;;;18.75;55.34;98085.47;5022603;28;20084;-60
2021/07/01 04:21:05;;;;;;;3.28;0.95;;;;;;;18.88;54.86;98084.63;5017886;28;20466;-60
2021/07/01 04:23:32;;;;;;;2.20;0.95;;;;;;;18.88;54.49;98082.00;5018697;28;20041;-60
2021/07/01 04:25:58;;;;;;;1.98;0.80;;;;;;;18.96;54.44;98098.34;5022142;28;20029;-60
2021/07/01 04:28:23;;;;;;;2.92;1.05;;;;;;;18.95;54.39;98091.47;5019691;28;20484;-60
2021/07/01 04:30:49;;;;;;;2.00;1.13;;;;;;;18.96;54.71;98094.91;5018172;28;20048;-60
2021/07/01 04:33:15;;;;;;;1.77;0.80;;;;;;;19.05;55.88;98104.19;5019782;28;20618;-60
2021/07/01 04:35:47;;;;;;;2.83;0.90;;;;;;;18.68;56.92;98061.81;5022497;28;20057;-60
2021/07/01 04:38:12;;;;;;;3.67;0.93;;;;;;;18.92;57.22;98094.53;5033137;28;20025;-60
2021/07/01 04:40:38;;;;;;;3.17;0.77;;;;;;;18.96;56.89;98098.34;5014669;28;20037;-60
2021/07/01 04:43:03;;;;;;;4.30;3.95;;;;;;;18.87;56.51;98083.81;5021092;28;20116;-60
2021/07/01 04:45:29;;;;;;;3.17;0.80;;;;;;;18.87;56.47;98080.38;5035349;28;20041;-60
2021/07/01 04:47:54;;;;;;;1.75;0.95;;;;;;;18.88;55.68;98074.91;5020564;28;20711;-60
2021/07/01 04:50:20;;;;;;;5.65;1.00;;;;;;;18.95;55.49;98082.78;5019297;28;20910;-59
2021/07/01 04:52:45;;;;;;;2.97;0.80;;;;;;;19.00;54.47;98089.03;5019095;28;20040;-60
2021/07/01 04:55:11;;;;;;;3.90;0.80;;;;;;;19.05;54.55;98091.00;5017189;28;20475;-60
2021/07/01 04:57:36;;;;;;;1.80;0.70;;;;;;;19.06;53.83;98090.00;5033356;28;20040;-60
2021/07/01 05:00:03;;;;;;;1.52;0.70;;;;;;;19.05;51.78;98087.56;5035349;28;20068;-60
2021/07/01 05:02:28;;;;;;;2.88;1.25;;;;;;;19.28;48.71;98089.66;5020413;28;20033;-59
2021/07/01 05:04:54;;;;;;;1.92;0.60;;;;;;;19.40;47.98;98090.56;5021270;28;20282;-60
2021/07/01 05:07:19;;;;;;;4.65;1.40;;;;;;;19.35;49.12;98080.69;5016880;28;20028;-60
2021/07/01 05:09:45;;;;;;;2.30;1.25;;;;;;;19.30;50.95;98088.41;5015949;28;20101;-60
2021/07/01 05:12:10;;;;;;;2.20;0.70;;;;;;;19.09;53.05;98070.31;5023587;28;20025;-60
2021/07/01 05:14:36;;;;;;;2.88;0.93;;;;;;;19.20;52.70;98088.06;5017347;28;20044;-60
2021/07/01 05:17:01;;;;;;;2.58;0.80;;;;;;;19.18;49.87;98090.13;5014024;28;20056;-60
2021/07/01 05:19:27;;;;;;;1.52;0.60;;;;;;;19.19;50.83;98097.81;5018591;28;20116;-60
2021/07/01 05:21:52;;;;;;;3.67;0.82;;;;;;;19.18;51.84;98100.66;5031114;28;20053;-60
2021/07/01 05:24:18;;;;;;;4.22;0.90;;;;;;;19.10;53.33;98090.38;5018308;28;20104;-60
2021/07/01 05:26:43;;;;;;;4.05;0.80;;;;;;;19.08;56.18;98101.13;5024981;28;20029;-60
2021/07/01 05:29:09;;;;;;;2.15;0.80;;;;;;;19.01;56.47;98101.16;5018758;28;20080;-60
2021/07/01 05:31:34;;;;;;;3.50;1.00;;;;;;;18.96;54.88;98093.06;5020166;28;20029;-60
2021/07/01 05:34:01;;;;;;;3.30;0.90;;;;;;;18.95;53.68;98095.94;5006156;28;20037;-60
2021/07/01 05:36:26;;;;;;;2.25;0.70;;;;;;;19.03;52.16;98098.31;5016347;28;20147;-59
2021/07/01 05:38:51;;;;;;;3.90;0.90;;;;;;;19.09;50.84;98092.19;5003044;28;20480;-60
2021/07/01 05:41:17;;;;;;;5.70;1.08;;;;;;;19.33;48.68;98103.81;5015422;28;20018;-60
2021/07/01 05:43:42;;;;;;;2.80;0.70;;;;;;;19.32;47.93;98102.19;5021129;28;20033;-60
2021/07/01 05:46:08;;;;;;;1.38;0.65;;;;;;;19.45;46.48;98100.47;5017497;28;20555;-60
2021/07/01 05:48:33;;;;;;;6.05;1.50;;;;;;;19.54;47.08;98105.28;5033286;28;20538;-60
2021/07/01 05:51:07;;;;;;;2.15;0.75;;;;;;;19.59;46.42;98110.72;5014779;28;20069;-60
2021/07/01 05:53:39;;;;;;;22.25;2.17;;;;;;;19.59;46.19;98096.72;5016412;28;20116;-61
2021/07/01 05:56:04;;;;;;;4.75;0.70;;;;;;;19.34;46.50;98072.97;5014364;28;20570;-60
2021/07/01 05:58:30;;;;;;;2.63;0.70;;;;;;;19.45;46.18;98093.38;5014778;28;20045;-60
2021/07/01 06:00:55;;;;;;;2.28;1.60;;;;;;;19.18;45.47;98043.50;5012677;28;20038;-60
2021/07/01 06:03:21;;;;;;;2.33;0.70;;;;;;;19.37;45.65;98054.91;5014719;28;20120;-60
2021/07/01 06:05:52;;;;;;;1.90;0.90;;;;;;;19.58;45.18;98095.91;5019175;28;20021;-60
2021/07/01 06:08:17;;;;;;;1.55;0.60;;;;;;;19.30;45.42;98064.69;5016699;28;20082;-59
2021/07/01 06:10:43;;;;;;;2.55;0.70;;;;;;;19.54;45.49;98102.63;5009728;28;20547;-60
2021/07/01 06:13:09;;;;;;;2.70;0.85;;;;;;;19.51;45.66;98103.09;5020151;28;20036;-60
2021/07/01 06:15:35;;;;;;;1.55;0.55;;;;;;;19.51;45.47;98103.09;5030557;28;20037;-60
2021/07/01 06:18:01;;;;;;;2.58;0.80;;;;;;;19.27;45.18;98073.03;5023472;28;20033;-60
2021/07/01 06:20:26;;;;;;;2.00;0.60;;;;;;;19.52;45.04;98109.94;5018599;28;20029;-59
2021/07/01 06:22:52;;;;;;;1.27;0.60;;;;;;;19.37;44.65;98067.28;5022926;28;20464;-60
2021/07/01 06:25:18;;;;;;;1.52;0.43;;;;;;;19.58;44.49;98097.75;5022086;28;20032;-60
2021/07/01 06:27:44;;;;;;;2.45;0.73;;;;;;;19.74;42.54;98110.41;5022563;28;20099;-61
2021/07/01 06:30:23;;;;;;;3.08;0.90;;;;;;;19.84;41.63;98077.47;5020598;28;20033;-60
2021/07/01 06:32:53;;;;;;;3.30;1.00;;;;;;;19.97;42.95;98103.72;5010338;28;20026;-60
2021/07/01 06:35:21;;;;;;;4.10;1.20;;;;;;;20.05;43.51;98100.81;5017320;28;20057;-60
2021/07/01 06:37:49;;;;;;;4.30;1.60;;;;;;;19.82;44.20;98072.41;5020254;28;20034;-60
2021/07/01 06:40:16;;;;;;;5.63;1.98;;;;;;;20.01;42.99;98112.03;5023778;28;20017;-60
2021/07/01 06:42:47;;;;;;;4.05;1.40;;;;;;;20.04;43.39;98117.69;5022566;28;20055;-60
2021/07/01 06:45:14;;;;;;;3.70;1.20;;;;;;;19.80;43.13;98071.81;5017377;28;20786;-60
2021/07/01 06:47:45;;;;;;;6.22;2.40;;;;;;;20.00;42.72;98113.84;5018735;28;20092;-60
2021/07/01 06:50:11;;;;;;;5.82;2.15;;;;;;;19.98;42.01;98116.69;5019508;28;20495;-60
2021/07/01 06:52:37;;;;;;;7.15;2.85;;;;;;;19.73;41.80;98069.25;5014725;28;20426;-60
2021/07/01 06:55:03;;;;;;;9.02;3.60;;;;;;;19.97;42.38;98107.19;5016197;28;20369;-61
2021/07/01 06:57:28;;;;;;;6.20;2.40;;;;;;;20.02;42.23;98117.06;5022036;28;20048;-60
2021/07/01 06:59:53;;;;;;;7.15;2.63;;;;;;;20.02;42.98;98108.34;5020985;28;20037;-60
2021/07/01 07:02:20;;;;;;;5.00;1.48;;;;;;;19.92;42.21;98109.66;5019517;28;20467;-60
2021/07/01 07:04:45;;;;;;;4.63;0.80;;;;;;;20.01;41.68;98106.75;5020367;28;20045;-60
2021/07/01 07:07:11;;;;;;;4.00;0.90;;;;;;;19.88;41.98;98092.66;5022746;28;20033;-60
2021/07/01 07:09:37;;;;;;;3.45;0.88;;;;;;;19.94;41.81;98106.81;5024888;28;20029;-61
2021/07/01 07:12:03;;;;;;;1.55;0.60;;;;;;;19.97;41.03;98106.38;5017575;28;20033;-60
2021/07/01 07:14:28;;;;;;;1.77;0.60;;;;;;;20.02;41.26;98105.72;5019389;28;20051;-60
2021/07/01 07:16:57;;;;;;;3.55;1.13;;;;;;;19.98;41.51;98110.59;5012790;28;20802;-60
2021/07/01 07:19:23;;;;;;;3.00;0.90;;;;;;;19.98;42.39;98113.25;5015713;28;20029;-60
2021/07/01 07:21:50;;;;;;;2.00;0.70;;;;;;;19.99;40.65;98106.97;5014886;28;20041;-60
2021/07/01 07:24:16;;;;;;;1.83;0.70;;;;;;;19.99;41.09;98096.41;5020734;28;20033;-60
2021/07/01 07:26:42;;;;;;;3.13;0.60;;;;;;;20.03;41.91;98100.22;5019912;28;20037;-60
2021/07/01 07:29:09;;;;;;;1.88;0.68;;;;;;;20.19;40.27;98103.28;5019396;28;20104;-59
2021/07/01 07:31:38;;;;;;;5.10;0.85;;;;;;;20.20;41.05;98097.00;5020313;28;20387;-60
2021/07/01 07:34:04;;;;;;;1.90;0.63;;;;;;;20.26;40.20;98096.94;5031693;28;20091;-60
2021/07/01 07:36:30;;;;;;;7.00;3.30;;;;;;;20.21;40.61;98080.94;5016801;28;20038;-60
2021/07/01 07:38:56;;;;;;;5.97;3.10;;;;;;;20.15;39.94;98069.44;5022840;28;20117;-60
2021/07/01 07:41:22;;;;;;;10.25;3.83;;;;;;;20.36;40.23;98105.13;5022215;28;20128;-60
2021/07/01 07:43:49;;;;;;;7.18;2.15;;;;;;;20.54;39.66;98106.97;5024290;28;20497;-60
2021/07/01 07:46:18;;;;;;;2.95;0.90;;;;;;;21.49;37.65;98107.38;5018968;28;20723;-60
2021/07/01 07:48:43;;;;;;;2.38;0.75;;;;;;;22.12;36.08;98095.31;5015288;28;20056;-60
2021/07/01 07:51:09;;;;;;;2.88;1.25;;;;;;;22.51;35.42;98105.44;5019398;28;20150;-61
2021/07/01 07:53:35;;;;;;;4.80;1.20;;;;;;;22.78;34.90;98100.38;5028178;28;20037;-60
2021/07/01 07:56:03;;;;;;;2.88;1.13;;;;;;;22.98;34.47;98092.00;5020574;28;20124;-60
2021/07/01 07:58:31;;;;;;;2.97;0.90;;;;;;;23.24;33.59;98085.34;5033293;28;20030;-60
2021/07/01 08:00:57;;;;;;;3.33;0.90;;;;;;;23.68;34.04;98092.66;5016537;28;20202;-60
2021/07/01 08:03:23;;;;;;;2.25;1.00;;;;;;;24.00;32.58;98090.22;5019314;28;20037;-60
2021/07/01 08:05:49;;;;;;;3.10;1.00;;;;;;;24.16;32.50;98100.00;5016859;28;20476;-60
2021/07/01 08:08:16;;;;;;;1.98;1.00;;;;;;;24.45;31.74;98085.75;5013505;28;20133;-59
2021/07/01 08:10:43;;;;;;;2.70;1.40;;;;;;;24.56;31.47;98095.50;5029973;28;20063;-60
2021/07/01 08:13:08;;;;;;;2.33;0.88;;;;;;;24.86;30.46;98088.91;5019907;28;20724;-60
2021/07/01 08:15:36;;;;;;;4.15;1.10;;;;;;;24.66;30.41;98086.81;5018092;28;20554;-60
2021/07/01 08:18:02;;;;;;;2.70;1.25;;;;;;;24.88;31.15;98076.97;5018827;28;20400;-60
2021/07/01 08:20:29;;;;;;;5.53;1.33;;;;;;;25.32;30.51;98084.06;5019067;28;20038;-60
2021/07/01 08:22:54;;;;;;;4.93;1.30;;;;;;;25.80;29.50;98060.19;5017659;28;20392;-60
2021/07/01 08:25:21;;;;;;;3.88;1.35;;;;;;;26.07;29.04;98068.88;5012379;28;20037;-60
2021/07/01 08:27:48;;;;;;;3.40;1.40;;;;;;;25.70;29.04;98080.34;5010796;28;20033;-60
2021/07/01 08:30:15;;;;;;;4.57;1.80;;;;;;;25.65;29.44;98084.84;5020016;28;20112;-60
2021/07/01 08:32:42;;;;;;;2.85;1.40;;;;;;;25.87;29.23;98082.84;5032932;28;20499;-60
2021/07/01 08:35:11;;;;;;;3.17;1.55;;;;;;;25.43;30.52;98051.16;5014920;28;20037;-60
2021/07/01 08:37:36;;;;;;;3.10;1.60;;;;;;;25.90;29.83;98065.53;5009939;28;20041;-59
2021/07/01 08:40:05;;;;;;;2.72;1.48;;;;;;;26.39;28.40;98045.81;5018022;28;20037;-60
2021/07/01 08:42:35;;;;;;;3.00;1.70;;;;;;;26.57;28.03;98066.66;5018382;28;20021;-60
2021/07/01 08:45:04;;;;;;;10.20;2.53;;;;;;;26.97;27.71;98075.88;5020303;28;20029;-60
2021/07/01 08:47:34;;;;;;;5.28;1.63;;;;;;;26.91;27.52;98079.59;5013989;28;20037;-60
2021/07/01 08:50:02;;;;;;;2.90;1.60;;;;;;;27.04;27.76;98052.41;5017606;28;20061;-60
2021/07/01 08:52:32;;;;;;;3.10;1.63;;;;;;;26.58;28.18;98078.94;5014860;28;20434;-60
2021/07/01 08:55:06;;;;;;;3.20;1.65;;;;;;;26.29;28.37;98075.91;5018769;28;20041;-60
2021/07/01 08:57:36;;;;;;;2.78;1.50;;;;;;;26.33;28.97;98070.88;5016469;28;20794;-60
2021/07/01 09:00:14;;;;;;;3.38;1.83;;;;;;;26.79;25.98;98044.38;5015494;28;20041;-60
2021/07/01 09:02:45;;;;;;;3.15;1.83;;;;;;;27.27;26.96;98060.16;5015746;28;20029;-60
2021/07/01 09:05:16;;;;;;;2.90;1.63;;;;;;;27.10;25.83;98042.53;5008284;28;20128;-60
2021/07/01 09:07:49;;;;;;;3.90;1.80;;;;;;;27.60;26.47;98075.66;5028715;28;20064;-60
2021/07/01 09:10:14;;;;;;;3.58;2.28;;;;;;;28.21;24.77;98054.44;5009279;28;20029;-60
2021/07/01 09:12:57;;;;;;;4.07;2.22;;;;;;;27.56;26.14;98042.56;5016052;28;20048;-60
2021/07/01 09:15:24;;;;;;;10.55;3.30;;;;;;;27.73;26.14;98076.97;5008672;28;20040;-61
2021/07/01 09:17:52;;;;;;;11.55;3.20;;;;;;;28.27;25.61;98086.19;5012566;28;20106;-60
2021/07/01 09:20:20;;;;;;;5.10;4.60;;;;;;;28.31;24.89;98068.56;5009719;28;20030;-60
2021/07/01 09:22:47;;;;;;;4.25;3.22;;;;;;;28.41;25.37;98075.72;5009490;28;20435;-60
2021/07/01 09:25:14;;;;;;;4.22;3.28;;;;;;;28.07;25.92;98076.38;5017877;28;20163;-60
2021/07/01 09:27:43;;;;;;;5.80;2.78;;;;;;;28.21;27.16;98067.78;5017736;28;20404;-60
2021/07/01 09:30:10;;;;;;;3.88;3.28;;;;;;;28.25;25.82;98055.47;5011290;28;20045;-60
2021/07/01 09:32:36;;;;;;;3.30;2.53;;;;;;;28.67;26.47;98038.97;5029357;28;20033;-60
2021/07/01 09:35:02;;;;;;;4.30;3.22;;;;;;;28.72;25.90;98062.22;5015076;28;20912;-61
2021/07/01 09:37:41;;;;;;;5.07;4.57;;;;;;;28.49;23.08;98069.78;5021112;28;20434;-60
2021/07/01 09:40:09;;;;;;;4.63;4.22;;;;;;;28.81;24.11;98076.63;5003194;28;20037;-60
2021/07/01 09:42:35;;;;;;;4.85;4.35;;;;;;;28.75;22.88;98072.38;5009779;28;20033;-60
2021/07/01 09:45:07;;;;;;;5.40;4.90;;;;;;;28.75;24.59;98061.69;5018818;28;20033;-60
2021/07/01 09:47:39;;;;;;;4.45;4.05;;;;;;;28.90;24.75;98052.75;5012411;28;20053;-60
2021/07/01 09:50:06;;;;;;;4.05;3.65;;;;;;;28.59;25.69;98060.97;5004734;28;20025;-60
2021/07/01 09:52:34;;;;;;;4.68;4.28;;;;;;;28.04;25.72;98066.25;5013278;28;20036;-60
2021/07/01 09:55:01;;;;;;;4.37;3.97;;;;;;;28.41;27.38;98062.34;5016188;28;20030;-60
2021/07/01 09:57:29;;;;;;;3.85;3.42;;;;;;;28.18;27.25;98047.75;5014371;28;20037;-60
2021/07/01 09:59:58;;;;;;;4.38;3.97;;;;;;;28.14;24.04;98042.16;5020674;28;20034;-60
2021/07/01 10:02:23;;;;;;;5.25;4.32;;;;;;;28.19;24.77;98052.81;5017950;28;20056;-60
2021/07/01 10:04:50;;;;;;;3.63;3.03;;;;;;;27.96;26.38;98066.78;5018261;28;20555;-60
2021/07/01 10:07:20;;;;;;;3.80;3.13;;;;;;;27.86;27.34;98051.56;5015363;28;20095;-60
2021/07/01 10:09:49;;;;;;;5.05;2.60;;;;;;;27.83;29.18;98060.13;5016559;28;20026;-60
2021/07/01 10:12:20;;;;;;;4.50;2.88;;;;;;;27.63;26.79;98062.81;5015796;28;20227;-60
2021/07/01 10:14:47;;;;;;;3.80;2.55;;;;;;;27.29;27.39;98026.00;5018149;28;20038;-60
2021/07/01 10:17:15;;;;;;;4.07;3.30;;;;;;;27.36;24.96;98040.72;5021350;28;20056;-60
2021/07/01 10:19:41;;;;;;;4.50;2.92;;;;;;;27.27;27.48;98050.31;5019483;28;20115;-60
2021/07/01 10:22:09;;;;;;;3.95;2.72;;;;;;;26.92;27.94;98027.84;5017856;28;20037;-59
2021/07/01 10:24:47;;;;;;;3.38;2.22;;;;;;;27.10;25.42;98055.06;5019651;28;20022;-60
2021/07/01 10:27:27;;;;;;;3.00;2.00;;;;;;;26.91;25.75;98044.91;5015788;28;20560;-60
2021/07/01 10:29:55;;;;;;;3.70;1.73;;;;;;;26.98;27.14;98052.66;5018616;28;20630;-60
2021/07/01 10:32:36;;;;;;;2.58;1.52;;;;;;;26.95;26.23;98043.31;5012542;28;20034;-60
2021/07/01 10:35:02;;;;;;;2.78;1.63;;;;;;;26.89;26.31;98023.06;5016401;28;20037;-60
2021/07/01 10:37:28;;;;;;;3.50;1.58;;;;;;;26.96;27.09;98028.09;5020059;28;20606;-60
2021/07/01 10:39:53;;;;;;;2.63;1.70;;;;;;;26.92;26.66;98029.72;5013583;28;20022;-60
2021/07/01 10:42:19;;;;;;;2.95;1.70;;;;;;;26.99;26.46;98056.94;5019033;28;20049;-60
2021/07/01 10:44:46;;;;;;;2.85;1.60;;;;;;;26.96;29.62;98044.94;5013126;28;20039;-61
2021/07/01 10:47:31;;;;;;;4.50;1.85;;;;;;;26.95;28.11;98045.19;5013893;28;20143;-60
2021/07/01 10:49:58;;;;;;;3.38;1.55;;;;;;;26.54;28.65;98013.09;5010208;28;20031;-60
2021/07/01 10:52:38;;;;;;;3.80;1.70;;;;;;;26.73;28.36;98045.44;5022546;28;20025;-60
2021/07/01 10:55:04;;;;;;;2.40;1.50;;;;;;;26.65;27.55;98041.38;5016060;28;20026;-60
2021/07/01 10:57:30;;;;;;;2.80;1.48;;;;;;;26.72;26.52;98033.94;5016941;28;20183;-60
2021/07/01 10:59:57;;;;;;;2.58;1.42;;;;;;;26.72;28.35;98044.59;5018865;28;20052;-60
2021/07/01 11:02:30;;;;;;;2.60;1.77;;;;;;;26.36;29.48;98033.00;5010858;28;22159;-60
2021/07/01 11:04:58;;;;;;;3.35;1.85;;;;;;;26.35;29.41;98044.75;5014384;28;20038;-60
2021/07/01 11:07:25;;;;;;;3.15;1.98;;;;;;;26.22;33.05;98046.81;5019954;28;20029;-60
2021/07/01 11:09:55;;;;;;;3.33;2.00;;;;;;;26.00;31.54;98040.88;5019153;28;21370;-60
2021/07/01 11:12:23;;;;;;;3.63;1.65;;;;;;;25.76;29.64;98027.16;5017872;28;20029;-60
2021/07/01 11:14:50;;;;;;;3.10;1.80;;;;;;;25.98;29.34;98043.00;5017429;28;20025;-60
2021/07/01 11:17:16;;;;;;;4.32;1.83;;;;;;;26.05;29.16;98043.56;5021208;28;20191;-60
2021/07/01 11:19:46;;;;;;;2.55;1.35;;;;;;;26.13;28.44;98048.38;5010831;28;20073;-60
2021/07/01 11:22:13;;;;;;;2.65;1.52;;;;;;;26.23;28.76;98034.31;5021471;28;20375;-60
2021/07/01 11:24:40;;;;;;;2.90;1.77;;;;;;;25.98;31.69;98000.38;5020222;28;20602;-60
2021/07/01 11:27:06;;;;;;;3.78;1.90;;;;;;;26.20;30.73;98038.31;5017096;28;20453;-60
2021/07/01 11:29:47;;;;;;;2.95;1.60;;;;;;;26.10;30.71;98035.59;5019926;28;20030;-60
2021/07/01 11:32:16;;;;;;;3.05;1.88;;;;;;;26.08;31.49;98043.84;5013058;28;20196;-60